N164RJ KTEB-KPBI
Flight info
| Callsign | N164RJ |
|---|---|
| Flight time | 2h 31m |
| Altitude | 40000 |
| Route | ELVAE COL WHITE Q409 CRPLR PAACK Q97 KENLL CPTAN3 |
| Aircraft | B738/M-SDE2E3FGHIRWXY/LB1 |
Departure
| Time | 2026-05-04 14:10 |
|---|---|
| Airport | Teterboro Airport (KTEB) |
Arrival
| Time | 2026-05-04 16:41 |
|---|---|
| Airport | Palm Beach International Airport (KPBI) |
| Time | Latitude | Longitude | Altitude | Speed | Heading |
|---|---|---|---|---|---|
| 2026-05-04 13:42 | 40.84194 | -74.06444 | 17 ft | 0 kts | 299° |
| 2026-05-04 14:03 | 40.84204 | -74.06459 | 16 ft | 4 kts | 319° |
| 2026-05-04 14:03 | 40.84242 | -74.06452 | 14 ft | 8 kts | 45° |
| 2026-05-04 14:03 | 40.84246 | -74.06365 | 14 ft | 12 kts | 94° |
| 2026-05-04 14:03 | 40.84241 | -74.06238 | 10 ft | 16 kts | 93° |
| 2026-05-04 14:04 | 40.84369 | -74.06146 | 13 ft | 12 kts | 6° |
| 2026-05-04 14:04 | 40.84451 | -74.06140 | 13 ft | 12 kts | 7° |
| 2026-05-04 14:04 | 40.84531 | -74.06133 | 14 ft | 11 kts | 2° |
| 2026-05-04 14:05 | 40.84684 | -74.06122 | 14 ft | 11 kts | 5° |
| 2026-05-04 14:05 | 40.84758 | -74.06116 | 14 ft | 10 kts | 2° |
| 2026-05-04 14:05 | 40.84832 | -74.06113 | 15 ft | 11 kts | 1° |
| 2026-05-04 14:06 | 40.84918 | -74.06107 | 14 ft | 14 kts | 4° |
| 2026-05-04 14:06 | 40.85022 | -74.06097 | 14 ft | 16 kts | 4° |
| 2026-05-04 14:06 | 40.85139 | -74.06089 | 15 ft | 17 kts | 2° |
| 2026-05-04 14:06 | 40.85264 | -74.06081 | 15 ft | 19 kts | 3° |
| 2026-05-04 14:07 | 40.85404 | -74.06070 | 14 ft | 21 kts | 3° |
| 2026-05-04 14:07 | 40.85549 | -74.06058 | 16 ft | 21 kts | 3° |
| 2026-05-04 14:07 | 40.85687 | -74.06048 | 14 ft | 14 kts | 2° |
| 2026-05-04 14:07 | 40.85741 | -74.06046 | 14 ft | 5 kts | 2° |
| 2026-05-04 14:08 | 40.85774 | -74.06028 | 14 ft | 5 kts | 42° |
| 2026-05-04 14:08 | 40.85784 | -74.05983 | 15 ft | 5 kts | 91° |
| 2026-05-04 14:08 | 40.85782 | -74.05936 | 15 ft | 5 kts | 94° |
| 2026-05-04 14:08 | 40.85769 | -74.05898 | 16 ft | 5 kts | 169° |
| 2026-05-04 14:09 | 40.85706 | -74.05902 | 17 ft | 40 kts | 183° |
| 2026-05-04 14:09 | 40.85082 | -74.05947 | 13 ft | 137 kts | 183° |
| 2026-05-04 14:10 | 40.82498 | -74.06142 | 1466 ft | 198 kts | 195° |
| 2026-05-04 14:10 | 40.81365 | -74.06975 | 2891 ft | 192 kts | 232° |
| 2026-05-04 14:10 | 40.80862 | -74.08658 | 3662 ft | 208 kts | 258° |
| 2026-05-04 14:10 | 40.80650 | -74.10586 | 4581 ft | 213 kts | 261° |
| 2026-05-04 14:11 | 40.80508 | -74.12553 | 5532 ft | 218 kts | 264° |
| 2026-05-04 14:11 | 40.80317 | -74.16612 | 7276 ft | 229 kts | 266° |
| 2026-05-04 14:11 | 40.80244 | -74.18820 | 7923 ft | 249 kts | 266° |
| 2026-05-04 14:12 | 40.80190 | -74.21135 | 8886 ft | 256 kts | 268° |
| 2026-05-04 14:12 | 40.80172 | -74.22699 | 9579 ft | 259 kts | 269° |
| 2026-05-04 14:12 | 40.79904 | -74.27655 | 10776 ft | 299 kts | 249° |
| 2026-05-04 14:13 | 40.78618 | -74.29947 | 11206 ft | 327 kts | 221° |
| 2026-05-04 14:13 | 40.76566 | -74.31397 | 12060 ft | 342 kts | 201° |
| 2026-05-04 14:13 | 40.73378 | -74.31806 | 13371 ft | 357 kts | 179° |
| 2026-05-04 14:13 | 40.70890 | -74.31333 | 14263 ft | 365 kts | 174° |
| 2026-05-04 14:14 | 40.69197 | -74.30904 | 14778 ft | 371 kts | 173° |
| 2026-05-04 14:14 | 40.64028 | -74.29604 | 16359 ft | 383 kts | 175° |
| 2026-05-04 14:14 | 40.61420 | -74.29021 | 17178 ft | 387 kts | 176° |
| 2026-05-04 14:15 | 40.56016 | -74.27893 | 18689 ft | 399 kts | 176° |
| 2026-05-04 14:15 | 40.50593 | -74.25758 | 20135 ft | 415 kts | 163° |
| 2026-05-04 14:16 | 40.45162 | -74.22955 | 21543 ft | 424 kts | 162° |
| 2026-05-04 14:16 | 40.42399 | -74.21551 | 22248 ft | 428 kts | 163° |
| 2026-05-04 14:17 | 40.36771 | -74.18753 | 23599 ft | 436 kts | 163° |
| 2026-05-04 14:17 | 40.33902 | -74.17454 | 24138 ft | 437 kts | 170° |
| 2026-05-04 14:17 | 40.27897 | -74.16946 | 25277 ft | 430 kts | 192° |
| 2026-05-04 14:18 | 40.24971 | -74.17698 | 25813 ft | 429 kts | 198° |
| 2026-05-04 14:18 | 40.19131 | -74.19554 | 26859 ft | 435 kts | 198° |
| 2026-05-04 14:19 | 40.13180 | -74.21391 | 27839 ft | 442 kts | 198° |
| 2026-05-04 14:19 | 40.10209 | -74.22279 | 28309 ft | 445 kts | 198° |
| 2026-05-04 14:19 | 40.07137 | -74.23190 | 28780 ft | 448 kts | 198° |
| 2026-05-04 14:19 | 40.04085 | -74.24100 | 29200 ft | 450 kts | 199° |
| 2026-05-04 14:20 | 40.01165 | -74.25353 | 29665 ft | 446 kts | 208° |
| 2026-05-04 14:20 | 39.98414 | -74.27177 | 30081 ft | 442 kts | 217° |
| 2026-05-04 14:20 | 39.95914 | -74.29488 | 30397 ft | 441 kts | 221° |
| 2026-05-04 14:21 | 39.91010 | -74.34302 | 31247 ft | 439 kts | 221° |
| 2026-05-04 14:21 | 39.88568 | -74.36665 | 31730 ft | 437 kts | 221° |
| 2026-05-04 14:21 | 39.86105 | -74.39021 | 32030 ft | 440 kts | 221° |
| 2026-05-04 14:21 | 39.83634 | -74.41366 | 32484 ft | 436 kts | 221° |
| 2026-05-04 14:22 | 39.81248 | -74.43744 | 33136 ft | 427 kts | 226° |
| 2026-05-04 14:22 | 39.79130 | -74.46433 | 33512 ft | 425 kts | 230° |
| 2026-05-04 14:22 | 39.77070 | -74.49197 | 33782 ft | 426 kts | 231° |
| 2026-05-04 14:22 | 39.75011 | -74.51981 | 34092 ft | 427 kts | 230° |
| 2026-05-04 14:23 | 39.70894 | -74.57510 | 34776 ft | 424 kts | 230° |
| 2026-05-04 14:23 | 39.68837 | -74.60250 | 35052 ft | 424 kts | 230° |
| 2026-05-04 14:23 | 39.66801 | -74.62951 | 35306 ft | 425 kts | 230° |
| 2026-05-04 14:24 | 39.64731 | -74.65689 | 35597 ft | 424 kts | 230° |
| 2026-05-04 14:24 | 39.62664 | -74.68419 | 35898 ft | 423 kts | 230° |
| 2026-05-04 14:24 | 39.60600 | -74.71140 | 36167 ft | 423 kts | 229° |
| 2026-05-04 14:24 | 39.58539 | -74.73856 | 36421 ft | 423 kts | 229° |
| 2026-05-04 14:25 | 39.56475 | -74.76574 | 36696 ft | 422 kts | 229° |
| 2026-05-04 14:25 | 39.52358 | -74.81987 | 37221 ft | 422 kts | 229° |
| 2026-05-04 14:25 | 39.50297 | -74.84694 | 37462 ft | 421 kts | 229° |
| 2026-05-04 14:26 | 39.48240 | -74.87394 | 37720 ft | 421 kts | 229° |
| 2026-05-04 14:26 | 39.46183 | -74.90090 | 37979 ft | 420 kts | 229° |
| 2026-05-04 14:26 | 39.44132 | -74.92776 | 38263 ft | 418 kts | 229° |
| 2026-05-04 14:26 | 39.42092 | -74.95446 | 38485 ft | 419 kts | 229° |
| 2026-05-04 14:27 | 39.40038 | -74.98133 | 38693 ft | 419 kts | 229° |
| 2026-05-04 14:27 | 39.37988 | -75.00812 | 38890 ft | 418 kts | 229° |
| 2026-05-04 14:27 | 39.35943 | -75.03482 | 39071 ft | 418 kts | 229° |
| 2026-05-04 14:27 | 39.33895 | -75.06154 | 39232 ft | 418 kts | 229° |
| 2026-05-04 14:28 | 39.29782 | -75.11510 | 39406 ft | 422 kts | 228° |
| 2026-05-04 14:28 | 39.27654 | -75.14121 | 39622 ft | 420 kts | 226° |
| 2026-05-04 14:28 | 39.25490 | -75.16635 | 39871 ft | 418 kts | 225° |
| 2026-05-04 14:29 | 39.21126 | -75.21638 | 40042 ft | 422 kts | 225° |
| 2026-05-04 14:29 | 39.16781 | -75.26671 | 40040 ft | 422 kts | 226° |
| 2026-05-04 14:30 | 39.12444 | -75.31723 | 40031 ft | 419 kts | 226° |
| 2026-05-04 14:31 | 39.05971 | -75.39256 | 40027 ft | 416 kts | 226° |
| 2026-05-04 14:31 | 39.01097 | -75.43321 | 40052 ft | 425 kts | 207° |
| 2026-05-04 14:32 | 38.95288 | -75.45171 | 40053 ft | 437 kts | 192° |
| 2026-05-04 14:32 | 38.89225 | -75.45934 | 40060 ft | 439 kts | 191° |
| 2026-05-04 14:33 | 38.83149 | -75.46713 | 40050 ft | 439 kts | 192° |
| 2026-05-04 14:33 | 38.77063 | -75.47559 | 40057 ft | 440 kts | 192° |
| 2026-05-04 14:34 | 38.70965 | -75.48412 | 40057 ft | 442 kts | 192° |
| 2026-05-04 14:34 | 38.64886 | -75.49236 | 40044 ft | 443 kts | 192° |
| 2026-05-04 14:35 | 38.58748 | -75.50059 | 40058 ft | 443 kts | 192° |
| 2026-05-04 14:35 | 38.52612 | -75.50885 | 40058 ft | 444 kts | 192° |
| 2026-05-04 14:36 | 38.46472 | -75.51712 | 40058 ft | 444 kts | 192° |
| 2026-05-04 14:36 | 38.40337 | -75.52536 | 40053 ft | 443 kts | 192° |
| 2026-05-04 14:37 | 38.34362 | -75.54008 | 40064 ft | 431 kts | 206° |
| 2026-05-04 14:37 | 38.29116 | -75.57434 | 40057 ft | 420 kts | 219° |
| 2026-05-04 14:38 | 38.24310 | -75.61672 | 40059 ft | 420 kts | 219° |
| 2026-05-04 14:38 | 38.19513 | -75.65910 | 40055 ft | 420 kts | 219° |
| 2026-05-04 14:39 | 38.14705 | -75.70112 | 40066 ft | 420 kts | 219° |
| 2026-05-04 14:39 | 38.09877 | -75.74306 | 40070 ft | 420 kts | 219° |
| 2026-05-04 14:40 | 38.02627 | -75.80583 | 40051 ft | 421 kts | 219° |
| 2026-05-04 14:40 | 37.97797 | -75.84757 | 40064 ft | 420 kts | 219° |
| 2026-05-04 14:41 | 37.92955 | -75.88934 | 40070 ft | 420 kts | 219° |
| 2026-05-04 14:42 | 37.83316 | -75.97232 | 40061 ft | 421 kts | 219° |
| 2026-05-04 14:42 | 37.78471 | -76.01392 | 40060 ft | 420 kts | 219° |
| 2026-05-04 14:43 | 37.73633 | -76.05540 | 40064 ft | 420 kts | 219° |
| 2026-05-04 14:43 | 37.68793 | -76.09684 | 40066 ft | 420 kts | 219° |
| 2026-05-04 14:44 | 37.63954 | -76.13820 | 40068 ft | 420 kts | 219° |
| 2026-05-04 14:44 | 37.59035 | -76.17836 | 40068 ft | 424 kts | 215° |
| 2026-05-04 14:45 | 37.53818 | -76.21328 | 40077 ft | 425 kts | 213° |
| 2026-05-04 14:45 | 37.48558 | -76.24740 | 40065 ft | 425 kts | 213° |
| 2026-05-04 14:46 | 37.43315 | -76.28176 | 40073 ft | 425 kts | 213° |
| 2026-05-04 14:46 | 37.38090 | -76.31630 | 40058 ft | 424 kts | 213° |
| 2026-05-04 14:47 | 37.32869 | -76.35087 | 40069 ft | 424 kts | 213° |
| 2026-05-04 14:47 | 37.27654 | -76.38538 | 40071 ft | 424 kts | 213° |
| 2026-05-04 14:48 | 37.22438 | -76.41983 | 40082 ft | 424 kts | 213° |
| 2026-05-04 14:48 | 37.17220 | -76.45423 | 40056 ft | 424 kts | 213° |
| 2026-05-04 14:49 | 37.12006 | -76.48855 | 40074 ft | 423 kts | 214° |
| 2026-05-04 14:49 | 37.06788 | -76.52285 | 40087 ft | 424 kts | 213° |
| 2026-05-04 14:50 | 37.01566 | -76.55711 | 40075 ft | 424 kts | 213° |
| 2026-05-04 14:50 | 36.96376 | -76.59112 | 40078 ft | 424 kts | 213° |
| 2026-05-04 14:51 | 36.91147 | -76.62532 | 40094 ft | 424 kts | 213° |
| 2026-05-04 14:51 | 36.85915 | -76.65950 | 40107 ft | 424 kts | 213° |
| 2026-05-04 14:52 | 36.80678 | -76.69365 | 40109 ft | 425 kts | 213° |
| 2026-05-04 14:52 | 36.75428 | -76.72783 | 40107 ft | 426 kts | 213° |
| 2026-05-04 14:53 | 36.70170 | -76.76201 | 40109 ft | 425 kts | 213° |
| 2026-05-04 14:53 | 36.64922 | -76.79607 | 40104 ft | 426 kts | 213° |
| 2026-05-04 14:54 | 36.59702 | -76.82990 | 40099 ft | 426 kts | 213° |
| 2026-05-04 14:54 | 36.54447 | -76.86390 | 40096 ft | 426 kts | 213° |
| 2026-05-04 14:55 | 36.49189 | -76.89788 | 40087 ft | 425 kts | 213° |
| 2026-05-04 14:55 | 36.43941 | -76.93172 | 40095 ft | 425 kts | 213° |
| 2026-05-04 14:56 | 36.38713 | -76.96539 | 40110 ft | 424 kts | 213° |
| 2026-05-04 14:56 | 36.33466 | -76.99914 | 40108 ft | 424 kts | 213° |
| 2026-05-04 14:57 | 36.28233 | -77.03275 | 40084 ft | 423 kts | 213° |
| 2026-05-04 14:57 | 36.23007 | -77.06625 | 40101 ft | 422 kts | 213° |
| 2026-05-04 14:58 | 36.17816 | -77.09949 | 40108 ft | 422 kts | 213° |
| 2026-05-04 14:58 | 36.13451 | -77.12739 | 40109 ft | 421 kts | 213° |
| 2026-05-04 14:59 | 36.07400 | -77.16603 | 40114 ft | 421 kts | 213° |
| 2026-05-04 15:00 | 35.99598 | -77.21576 | 40108 ft | 420 kts | 213° |
| 2026-05-04 15:00 | 35.94403 | -77.24880 | 40122 ft | 420 kts | 214° |
| 2026-05-04 15:01 | 35.88147 | -77.30289 | 40121 ft | 411 kts | 224° |
| 2026-05-04 15:01 | 35.83668 | -77.34669 | 40116 ft | 411 kts | 224° |
| 2026-05-04 15:02 | 35.79175 | -77.39021 | 40104 ft | 411 kts | 224° |
| 2026-05-04 15:02 | 35.74663 | -77.43361 | 40110 ft | 411 kts | 224° |
| 2026-05-04 15:03 | 35.70143 | -77.47698 | 40112 ft | 412 kts | 224° |
| 2026-05-04 15:03 | 35.65623 | -77.52029 | 40114 ft | 412 kts | 224° |
| 2026-05-04 15:04 | 35.61101 | -77.56356 | 40114 ft | 412 kts | 224° |
| 2026-05-04 15:04 | 35.56577 | -77.60679 | 40110 ft | 411 kts | 224° |
| 2026-05-04 15:05 | 35.52060 | -77.64987 | 40136 ft | 410 kts | 224° |
| 2026-05-04 15:05 | 35.47580 | -77.69257 | 40134 ft | 410 kts | 224° |
| 2026-05-04 15:06 | 35.43075 | -77.73547 | 40135 ft | 410 kts | 224° |
| 2026-05-04 15:07 | 35.36320 | -77.79969 | 40135 ft | 409 kts | 224° |
| 2026-05-04 15:07 | 35.31817 | -77.84243 | 40127 ft | 409 kts | 224° |
| 2026-05-04 15:08 | 35.27310 | -77.88514 | 40126 ft | 409 kts | 224° |
| 2026-05-04 15:08 | 35.22809 | -77.92774 | 40130 ft | 409 kts | 224° |
| 2026-05-04 15:09 | 35.18339 | -77.96997 | 40128 ft | 409 kts | 224° |
| 2026-05-04 15:09 | 35.13835 | -78.01247 | 40123 ft | 409 kts | 224° |
| 2026-05-04 15:10 | 35.07085 | -78.07604 | 40132 ft | 408 kts | 224° |
| 2026-05-04 15:11 | 35.00331 | -78.13952 | 40138 ft | 408 kts | 224° |
| 2026-05-04 15:11 | 34.95827 | -78.18177 | 40136 ft | 408 kts | 224° |
| 2026-05-04 15:12 | 34.91323 | -78.22397 | 40103 ft | 408 kts | 224° |
| 2026-05-04 15:12 | 34.86828 | -78.26602 | 40127 ft | 408 kts | 224° |
| 2026-05-04 15:13 | 34.82327 | -78.30807 | 40126 ft | 408 kts | 224° |
| 2026-05-04 15:13 | 34.77822 | -78.35011 | 40139 ft | 408 kts | 224° |
| 2026-05-04 15:14 | 34.73312 | -78.39212 | 40135 ft | 409 kts | 223° |
| 2026-05-04 15:14 | 34.68793 | -78.43415 | 40108 ft | 409 kts | 223° |
| 2026-05-04 15:15 | 34.64275 | -78.47613 | 40129 ft | 409 kts | 223° |
| 2026-05-04 15:15 | 34.59751 | -78.51809 | 40140 ft | 409 kts | 223° |
| 2026-05-04 15:16 | 34.52979 | -78.58082 | 40138 ft | 410 kts | 223° |
| 2026-05-04 15:17 | 34.46175 | -78.64370 | 40134 ft | 410 kts | 223° |
| 2026-05-04 15:17 | 34.39363 | -78.70636 | 40144 ft | 411 kts | 222° |
| 2026-05-04 15:18 | 34.34655 | -78.74580 | 40157 ft | 412 kts | 220° |
| 2026-05-04 15:19 | 34.27538 | -78.80439 | 40129 ft | 412 kts | 221° |
| 2026-05-04 15:19 | 34.20461 | -78.86332 | 40105 ft | 411 kts | 221° |
| 2026-05-04 15:20 | 34.15785 | -78.90223 | 40120 ft | 411 kts | 221° |
| 2026-05-04 15:20 | 34.11049 | -78.94163 | 40134 ft | 411 kts | 221° |
| 2026-05-04 15:21 | 34.06342 | -78.98076 | 40137 ft | 411 kts | 221° |
| 2026-05-04 15:22 | 33.99301 | -79.03918 | 40148 ft | 412 kts | 221° |
| 2026-05-04 15:22 | 33.92224 | -79.09778 | 40151 ft | 411 kts | 221° |
| 2026-05-04 15:23 | 33.87497 | -79.13686 | 40157 ft | 412 kts | 221° |
| 2026-05-04 15:23 | 33.82782 | -79.17580 | 40157 ft | 412 kts | 221° |
| 2026-05-04 15:24 | 33.73316 | -79.25381 | 40113 ft | 412 kts | 221° |
| 2026-05-04 15:25 | 33.68589 | -79.29267 | 40137 ft | 412 kts | 221° |
| 2026-05-04 15:26 | 33.61554 | -79.35182 | 40149 ft | 411 kts | 222° |
| 2026-05-04 15:26 | 33.54554 | -79.41146 | 40152 ft | 412 kts | 221° |
| 2026-05-04 15:27 | 33.47537 | -79.47094 | 40148 ft | 411 kts | 221° |
| 2026-05-04 15:28 | 33.40547 | -79.53001 | 40153 ft | 412 kts | 221° |
| 2026-05-04 15:29 | 33.33514 | -79.58931 | 40151 ft | 412 kts | 221° |
| 2026-05-04 15:30 | 33.17104 | -79.72721 | 40142 ft | 411 kts | 221° |
| 2026-05-04 15:31 | 33.10076 | -79.78608 | 40145 ft | 411 kts | 221° |
| 2026-05-04 15:32 | 32.98388 | -79.88373 | 40146 ft | 411 kts | 221° |
| 2026-05-04 15:34 | 32.86661 | -79.98137 | 40150 ft | 411 kts | 221° |
| 2026-05-04 15:34 | 32.79623 | -80.03982 | 40153 ft | 411 kts | 221° |
| 2026-05-04 15:35 | 32.72586 | -80.09815 | 40151 ft | 410 kts | 221° |
| 2026-05-04 15:36 | 32.65566 | -80.15622 | 40156 ft | 410 kts | 221° |
| 2026-05-04 15:36 | 32.60884 | -80.19491 | 40151 ft | 410 kts | 222° |
| 2026-05-04 15:37 | 32.56205 | -80.23351 | 40154 ft | 410 kts | 222° |
| 2026-05-04 15:37 | 32.51501 | -80.27187 | 40152 ft | 412 kts | 219° |
| 2026-05-04 15:38 | 32.46487 | -80.30478 | 40142 ft | 416 kts | 216° |
| 2026-05-04 15:38 | 32.41354 | -80.33646 | 40156 ft | 416 kts | 216° |
| 2026-05-04 15:39 | 32.36226 | -80.36836 | 40153 ft | 416 kts | 216° |
| 2026-05-04 15:40 | 32.28569 | -80.41652 | 40157 ft | 416 kts | 216° |
| 2026-05-04 15:40 | 32.23470 | -80.44867 | 40139 ft | 415 kts | 216° |
| 2026-05-04 15:41 | 32.18367 | -80.48081 | 40139 ft | 415 kts | 216° |
| 2026-05-04 15:41 | 32.13275 | -80.51283 | 40147 ft | 415 kts | 216° |
| 2026-05-04 15:42 | 32.08171 | -80.54489 | 40146 ft | 415 kts | 217° |
| 2026-05-04 15:42 | 32.03071 | -80.57688 | 40151 ft | 415 kts | 217° |
| 2026-05-04 15:43 | 31.97966 | -80.60885 | 40123 ft | 415 kts | 217° |
| 2026-05-04 15:43 | 31.92890 | -80.64061 | 40141 ft | 415 kts | 217° |
| 2026-05-04 15:44 | 31.87786 | -80.67250 | 40143 ft | 415 kts | 217° |
| 2026-05-04 15:44 | 31.82679 | -80.70438 | 40151 ft | 415 kts | 217° |
| 2026-05-04 15:45 | 31.77575 | -80.73619 | 40151 ft | 416 kts | 217° |
| 2026-05-04 15:45 | 31.72461 | -80.76802 | 40119 ft | 416 kts | 217° |
| 2026-05-04 15:46 | 31.67345 | -80.79982 | 40137 ft | 415 kts | 217° |
| 2026-05-04 15:46 | 31.62240 | -80.83152 | 40153 ft | 415 kts | 217° |
| 2026-05-04 15:47 | 31.57139 | -80.86315 | 40152 ft | 415 kts | 217° |
| 2026-05-04 15:47 | 31.52034 | -80.89478 | 40156 ft | 415 kts | 217° |
| 2026-05-04 15:48 | 31.46930 | -80.92636 | 40103 ft | 415 kts | 218° |
| 2026-05-04 15:48 | 31.39297 | -80.97350 | 40151 ft | 413 kts | 218° |
| 2026-05-04 15:49 | 31.34245 | -81.00467 | 40152 ft | 413 kts | 218° |
| 2026-05-04 15:49 | 31.29164 | -81.03597 | 40154 ft | 413 kts | 218° |
| 2026-05-04 15:50 | 31.26496 | -81.04958 | 40147 ft | 425 kts | 208° |
| 2026-05-04 15:50 | 31.23621 | -81.05866 | 40157 ft | 434 kts | 201° |
| 2026-05-04 15:50 | 31.18471 | -81.06387 | 40157 ft | 448 kts | 192° |
| 2026-05-04 15:51 | 31.12263 | -81.06453 | 40154 ft | 449 kts | 191° |
| 2026-05-04 15:51 | 31.06011 | -81.06514 | 40153 ft | 449 kts | 192° |
| 2026-05-04 15:52 | 30.99768 | -81.06624 | 40157 ft | 448 kts | 192° |
| 2026-05-04 15:52 | 30.93533 | -81.06755 | 40155 ft | 448 kts | 192° |
| 2026-05-04 15:53 | 30.87292 | -81.06887 | 40146 ft | 448 kts | 192° |
| 2026-05-04 15:53 | 30.81063 | -81.07018 | 40154 ft | 448 kts | 192° |
| 2026-05-04 15:54 | 30.74833 | -81.07148 | 40151 ft | 448 kts | 192° |
| 2026-05-04 15:54 | 30.68591 | -81.07278 | 40154 ft | 448 kts | 192° |
| 2026-05-04 15:55 | 30.62350 | -81.07408 | 40122 ft | 448 kts | 192° |
| 2026-05-04 15:55 | 30.56156 | -81.07713 | 40141 ft | 445 kts | 194° |
| 2026-05-04 15:56 | 30.49980 | -81.08126 | 40150 ft | 445 kts | 194° |
| 2026-05-04 15:56 | 30.43800 | -81.08524 | 40152 ft | 445 kts | 194° |
| 2026-05-04 15:57 | 30.37602 | -81.08900 | 40150 ft | 446 kts | 193° |
| 2026-05-04 15:57 | 30.31445 | -81.09265 | 40149 ft | 446 kts | 193° |
| 2026-05-04 15:58 | 30.25241 | -81.09632 | 40150 ft | 446 kts | 193° |
| 2026-05-04 15:58 | 30.19034 | -81.10000 | 40149 ft | 447 kts | 193° |
| 2026-05-04 15:59 | 30.12833 | -81.10367 | 40150 ft | 446 kts | 193° |
| 2026-05-04 15:59 | 30.06621 | -81.10735 | 40140 ft | 445 kts | 193° |
| 2026-05-04 16:00 | 30.00430 | -81.11100 | 40153 ft | 445 kts | 193° |
| 2026-05-04 16:00 | 29.94253 | -81.11465 | 40161 ft | 445 kts | 193° |
| 2026-05-04 16:01 | 29.88071 | -81.11830 | 40161 ft | 445 kts | 193° |
| 2026-05-04 16:01 | 29.81888 | -81.12195 | 40154 ft | 445 kts | 193° |
| 2026-05-04 16:02 | 29.75676 | -81.12329 | 40143 ft | 448 kts | 190° |
| 2026-05-04 16:03 | 29.66320 | -81.12326 | 40144 ft | 448 kts | 190° |
| 2026-05-04 16:03 | 29.60089 | -81.12377 | 40139 ft | 448 kts | 190° |
| 2026-05-04 16:03 | 29.56951 | -81.12206 | 40114 ft | 462 kts | 178° |
| 2026-05-04 16:04 | 29.53836 | -81.11101 | 40194 ft | 473 kts | 169° |
| 2026-05-04 16:04 | 29.44599 | -81.07104 | 40144 ft | 474 kts | 168° |
| 2026-05-04 16:05 | 29.38368 | -81.04469 | 40149 ft | 474 kts | 168° |
| 2026-05-04 16:06 | 29.29109 | -81.00641 | 40142 ft | 474 kts | 169° |
| 2026-05-04 16:07 | 29.16722 | -80.95536 | 40137 ft | 472 kts | 168° |
| 2026-05-04 16:08 | 29.04351 | -80.90446 | 40151 ft | 471 kts | 169° |
| 2026-05-04 16:09 | 28.88960 | -80.84135 | 40137 ft | 468 kts | 169° |
| 2026-05-04 16:10 | 28.76703 | -80.79133 | 40103 ft | 466 kts | 169° |
| 2026-05-04 16:11 | 28.67464 | -80.75370 | 39019 ft | 472 kts | 168° |
| 2026-05-04 16:11 | 28.64375 | -80.74110 | 38344 ft | 472 kts | 168° |
| 2026-05-04 16:12 | 28.55127 | -80.70350 | 36323 ft | 469 kts | 168° |
| 2026-05-04 16:12 | 28.45876 | -80.66601 | 34383 ft | 470 kts | 169° |
| 2026-05-04 16:13 | 28.39726 | -80.64106 | 33176 ft | 466 kts | 168° |
| 2026-05-04 16:13 | 28.33706 | -80.61668 | 32029 ft | 460 kts | 168° |
| 2026-05-04 16:14 | 28.27686 | -80.59235 | 30996 ft | 453 kts | 168° |
| 2026-05-04 16:14 | 28.21816 | -80.56868 | 29879 ft | 448 kts | 168° |
| 2026-05-04 16:15 | 28.13108 | -80.53356 | 28149 ft | 437 kts | 168° |
| 2026-05-04 16:16 | 28.07440 | -80.51075 | 27112 ft | 428 kts | 168° |
| 2026-05-04 16:16 | 27.99117 | -80.47732 | 25526 ft | 418 kts | 168° |
| 2026-05-04 16:17 | 27.93674 | -80.45549 | 24484 ft | 413 kts | 167° |
| 2026-05-04 16:18 | 27.85601 | -80.42312 | 22771 ft | 408 kts | 167° |
| 2026-05-04 16:18 | 27.82934 | -80.41241 | 22211 ft | 404 kts | 167° |
| 2026-05-04 16:19 | 27.75099 | -80.38102 | 20636 ft | 393 kts | 166° |
| 2026-05-04 16:19 | 27.69981 | -80.36054 | 19606 ft | 387 kts | 166° |
| 2026-05-04 16:20 | 27.62530 | -80.32723 | 18024 ft | 383 kts | 160° |
| 2026-05-04 16:20 | 27.57767 | -80.30113 | 16897 ft | 377 kts | 159° |
| 2026-05-04 16:21 | 27.50764 | -80.26377 | 15406 ft | 366 kts | 159° |
| 2026-05-04 16:22 | 27.46231 | -80.23991 | 14459 ft | 358 kts | 159° |
| 2026-05-04 16:22 | 27.39541 | -80.20470 | 12943 ft | 348 kts | 158° |
| 2026-05-04 16:23 | 27.33075 | -80.17070 | 11565 ft | 336 kts | 158° |
| 2026-05-04 16:24 | 27.24789 | -80.12735 | 9895 ft | 319 kts | 161° |
| 2026-05-04 16:25 | 27.20947 | -80.10873 | 9727 ft | 289 kts | 162° |
| 2026-05-04 16:26 | 27.13694 | -80.07378 | 8286 ft | 284 kts | 159° |
| 2026-05-04 16:26 | 27.08350 | -80.04735 | 7450 ft | 278 kts | 157° |
| 2026-05-04 16:27 | 27.04840 | -80.03000 | 7012 ft | 274 kts | 156° |
| 2026-05-04 16:28 | 26.99632 | -80.00430 | 6002 ft | 274 kts | 154° |
| 2026-05-04 16:28 | 26.94242 | -79.99249 | 5092 ft | 273 kts | 202° |
| 2026-05-04 16:29 | 26.88842 | -80.03732 | 4973 ft | 214 kts | 221° |
| 2026-05-04 16:30 | 26.85050 | -80.06981 | 4164 ft | 257 kts | 217° |
| 2026-05-04 16:31 | 26.82218 | -80.09451 | 3999 ft | 250 kts | 218° |
| 2026-05-04 16:31 | 26.80352 | -80.14137 | 4003 ft | 225 kts | 270° |
| 2026-05-04 16:32 | 26.80009 | -80.19507 | 3999 ft | 232 kts | 268° |
| 2026-05-04 16:33 | 26.79778 | -80.23097 | 3934 ft | 227 kts | 268° |
| 2026-05-04 16:33 | 26.79631 | -80.26668 | 3344 ft | 230 kts | 268° |
| 2026-05-04 16:34 | 26.79461 | -80.30256 | 2999 ft | 228 kts | 269° |
| 2026-05-04 16:34 | 26.79376 | -80.32022 | 2993 ft | 227 kts | 273° |
| 2026-05-04 16:35 | 26.76631 | -80.35842 | 2967 ft | 235 kts | 182° |
| 2026-05-04 16:35 | 26.71994 | -80.34790 | 2985 ft | 227 kts | 131° |
| 2026-05-04 16:36 | 26.71318 | -80.33909 | 3022 ft | 225 kts | 123° |
| 2026-05-04 16:36 | 26.69442 | -80.31164 | 2982 ft | 216 kts | 114° |
| 2026-05-04 16:37 | 26.69109 | -80.27931 | 2942 ft | 215 kts | 91° |
| 2026-05-04 16:37 | 26.69011 | -80.26283 | 2712 ft | 208 kts | 90° |
| 2026-05-04 16:37 | 26.68864 | -80.23213 | 2209 ft | 183 kts | 88° |
| 2026-05-04 16:38 | 26.68748 | -80.20594 | 1755 ft | 158 kts | 86° |
| 2026-05-04 16:39 | 26.68588 | -80.16950 | 1166 ft | 151 kts | 86° |
| 2026-05-04 16:39 | 26.68500 | -80.14877 | 801 ft | 116 kts | 89° |
| 2026-05-04 16:40 | 26.68412 | -80.13044 | 516 ft | 118 kts | 86° |
| 2026-05-04 16:40 | 26.68343 | -80.11204 | 165 ft | 116 kts | 88° |
| 2026-05-04 16:41 | 26.68265 | -80.09547 | 21 ft | 85 kts | 92° |
| 2026-05-04 16:41 | 26.68192 | -80.08601 | 21 ft | 15 kts | 136° |
| 2026-05-04 16:42 | 26.68133 | -80.08542 | 21 ft | 0 kts | 137° |
| 2026-05-04 16:43 | 26.68107 | -80.08452 | 21 ft | 12 kts | 93° |
| 2026-05-04 16:43 | 26.68097 | -80.08219 | 21 ft | 15 kts | 92° |
| 2026-05-04 16:43 | 26.68054 | -80.08157 | 21 ft | 12 kts | 178° |
| 2026-05-04 16:44 | 26.67995 | -80.08021 | 22 ft | 0 kts | 145° |
| 2026-05-04 16:45 | 26.67958 | -80.08002 | 23 ft | 5 kts | 204° |
| 2026-05-04 16:46 | 26.67940 | -80.08031 | 21 ft | 0 kts | 246° |
| 2026-05-04 16:46 | 26.67939 | -80.08038 | 21 ft | 0 kts | 269° |